Fort Rock, Oregon
Current Conditions -  °F | °C
As of 7:15 PM on Saturday 25 Oct 2014 (Local Time) from KBDN Reporting Station
Light Rain Light Rain  
Wind Chill: 42°   Ceiling: 3900
Heat Index: 48°   Visibility: 10mi
Dew Point: 39°   Wind: 16mph
Humidity: 71%   Direction: 230°SW
Pressure: 29.76"   Gusts: 23mph
Location:  43.36°N, 121.05°W
Report Text: KBDN 260215Z AUTO 23014G20KT 10SM -RA FEW032 BKN039 BKN046 09/04 A2976 RMK AO2
Loading
Personal Weather Stations






























Interactive Weather Map
Tropical Storm Tracking
New forecast layout! Learn more

10-Day Weather Forecast

Advertisements
Track Severe Weather on mobile